Terminal Aerodrome Forecast
Issued by NWS

Home | Current Version | Previous Version | Text Only | Print | Product List | Glossary On
Versions: 1 2 3 4 5 6 7 8 9 10 11 12
000
FTUS43 KDTX 300500
TAFDET
TAF
KDET 300522Z 3006/0106 32010KT 4SM -SHRA BR OVC008
     FM300800 32010KT 6SM BR OVC008
     FM301600 32010KT P6SM OVC015
     FM302000 34007KT P6SM BKN025
     FM010400 36005KT P6SM OVC015=

USA.gov is the U.S. government's official web portal to all federal, state and local government web resources and services.